Time;durP1;ratioP1;P1;durP2;ratioP2;P2;SDS_P1;SDS_P2;PMS_P1;PMS_P2;Temp;Humidity;BMP_temperature;BMP_pressure;BME280_temperature;BME280_humidity;BME280_pressure;Samples;Min_cycle;Max_cycle;Signal;HPM_P1;HPM_P2
2022/05/02 00:01:03;;;;;;;23.20;20.98;;;7.40;99.90;;;;;;5023193;28;20040;-80
2022/05/02 00:03:30;;;;;;;21.77;19.83;;;7.40;99.90;;;;;;5030634;28;20037;-80
2022/05/02 00:05:56;;;;;;;21.17;19.48;;;7.40;99.90;;;;;;5025189;28;20056;-79
2022/05/02 00:08:23;;;;;;;19.90;18.33;;;7.30;99.90;;;;;;5040644;28;20040;-79
2022/05/02 00:10:49;;;;;;;19.58;17.60;;;7.20;99.90;;;;;;5033169;28;20037;-80
2022/05/02 00:13:15;;;;;;;20.50;18.83;;;7.10;99.90;;;;;;5035562;28;20041;-79
2022/05/02 00:15:41;;;;;;;21.73;19.92;;;7.10;99.90;;;;;;5033340;28;20028;-79
2022/05/02 00:18:08;;;;;;;22.90;20.70;;;7.10;99.90;;;;;;5033989;28;20045;-79
2022/05/02 00:20:37;;;;;;;22.02;20.23;;;7.10;99.90;;;;;;5028790;28;20405;-80
2022/05/02 00:23:07;;;;;;;20.45;18.50;;;7.20;99.90;;;;;;5016476;28;20040;-80
2022/05/02 00:25:33;;;;;;;20.45;18.75;;;7.20;99.90;;;;;;5031500;28;20045;-80
2022/05/02 00:27:59;;;;;;;21.58;19.42;;;7.10;99.90;;;;;;5035217;28;20037;-80
2022/05/02 00:30:27;;;;;;;21.45;19.55;;;7.10;99.90;;;;;;5019931;28;20056;-80
2022/05/02 00:32:54;;;;;;;20.17;18.65;;;7.00;99.90;;;;;;5029647;28;20056;-79
2022/05/02 00:35:21;;;;;;;23.10;21.08;;;7.00;99.90;;;;;;5028171;28;20029;-79
2022/05/02 00:37:47;;;;;;;21.52;19.65;;;7.00;99.90;;;;;;5026428;28;20041;-79
2022/05/02 00:40:16;;;;;;;21.70;19.17;;;7.00;99.90;;;;;;5026333;28;20032;-79
2022/05/02 00:42:45;;;;;;;24.08;21.75;;;7.00;99.90;;;;;;5033481;28;20040;-79
2022/05/02 00:45:14;;;;;;;23.35;21.40;;;7.10;99.90;;;;;;5031583;28;20038;-80
2022/05/02 00:47:40;;;;;;;22.58;20.45;;;7.10;99.90;;;;;;5025459;28;20041;-80
2022/05/02 00:50:09;;;;;;;24.92;20.70;;;7.10;99.90;;;;;;5033213;28;20040;-79
2022/05/02 00:52:37;;;;;;;22.35;20.20;;;7.10;99.90;;;;;;5031461;28;20072;-80
2022/05/02 00:55:04;;;;;;;20.83;18.50;;;7.10;99.90;;;;;;5027996;28;20030;-80
2022/05/02 00:57:32;;;;;;;21.38;19.27;;;7.00;99.90;;;;;;5033013;28;20060;-80
2022/05/02 00:59:59;;;;;;;19.88;18.20;;;6.90;99.90;;;;;;5035363;28;20029;-79
2022/05/02 01:02:25;;;;;;;22.38;20.23;;;6.90;99.90;;;;;;5038138;28;20030;-78
2022/05/02 01:04:51;;;;;;;23.23;21.00;;;6.90;99.90;;;;;;5042313;28;20038;-80
2022/05/02 01:07:20;;;;;;;22.95;21.15;;;6.90;99.90;;;;;;5040047;28;20049;-79
2022/05/02 01:09:49;;;;;;;22.38;20.25;;;6.90;99.90;;;;;;5027822;28;20025;-80
2022/05/02 01:12:24;;;;;;;23.05;20.60;;;6.90;99.90;;;;;;5029676;28;20471;-79
2022/05/02 01:14:53;;;;;;;24.17;21.83;;;6.90;99.90;;;;;;5030131;28;20033;-79
2022/05/02 01:17:20;;;;;;;19.95;18.40;;;6.80;99.90;;;;;;5015286;28;20147;-79
2022/05/02 01:19:46;;;;;;;21.90;19.77;;;6.80;99.90;;;;;;5030674;28;20022;-79
2022/05/02 01:22:12;;;;;;;20.73;19.08;;;6.80;99.90;;;;;;5028575;28;20025;-80
2022/05/02 01:24:47;;;;;;;20.15;18.45;;;6.80;99.90;;;;;;5033041;28;20048;-79
2022/05/02 01:27:15;;;;;;;21.33;19.40;;;6.80;99.90;;;;;;5049171;28;20037;-79
2022/05/02 01:29:43;;;;;;;20.65;18.95;;;6.80;99.90;;;;;;5053465;28;20029;-79
2022/05/02 01:32:13;;;;;;;19.25;17.70;;;6.70;99.90;;;;;;5046543;28;20490;-80
2022/05/02 01:34:40;;;;;;;19.15;17.48;;;6.60;99.90;;;;;;5034787;28;20474;-80
2022/05/02 01:37:07;;;;;;;19.77;18.17;;;6.50;99.90;;;;;;5050847;28;20036;-81
2022/05/02 01:39:34;;;;;;;19.27;17.52;;;6.60;99.90;;;;;;5053225;28;20466;-80
2022/05/02 01:42:05;;;;;;;20.70;18.92;;;6.60;99.90;;;;;;5033184;28;20048;-80
2022/05/02 01:44:31;;;;;;;21.63;19.60;;;6.60;99.90;;;;;;5035337;28;20045;-80
2022/05/02 01:46:57;;;;;;;21.55;19.65;;;6.60;99.90;;;;;;5050683;28;20486;-80
2022/05/02 01:49:24;;;;;;;19.83;18.33;;;6.60;99.90;;;;;;5052464;28;20025;-80
2022/05/02 01:51:51;;;;;;;19.08;17.38;;;6.60;99.90;;;;;;5051017;28;20438;-80
2022/05/02 01:54:17;;;;;;;19.30;17.33;;;6.60;99.90;;;;;;5052225;28;20036;-80
2022/05/02 01:56:44;;;;;;;17.42;15.95;;;6.50;99.90;;;;;;5051613;28;20458;-81
2022/05/02 01:59:10;;;;;;;21.27;19.13;;;6.40;99.90;;;;;;5053298;28;20028;-80
2022/05/02 02:01:37;;;;;;;18.63;17.05;;;6.50;99.90;;;;;;5051440;28;20033;-80
2022/05/02 02:05:48;;;;;;;19.55;17.88;;;6.50;99.90;;;;;;5045099;28;20393;-80
2022/05/02 02:06:51;;;;;;;19.05;17.42;;;6.50;99.90;;;;;;5051309;28;20465;-80
2022/05/02 02:09:18;;;;;;;19.65;17.88;;;6.40;99.90;;;;;;5051938;28;20032;-81
2022/05/02 02:11:44;;;;;;;25.05;18.05;;;6.40;99.90;;;;;;5048205;28;20036;-81
2022/05/02 02:14:11;;;;;;;20.67;18.75;;;6.30;99.90;;;;;;5035061;28;20041;-80
2022/05/02 02:16:37;;;;;;;21.17;19.48;;;6.30;99.90;;;;;;5051166;28;20055;-80
2022/05/02 02:19:04;;;;;;;18.52;16.95;;;6.30;99.90;;;;;;5049455;28;20052;-81
2022/05/02 02:21:31;;;;;;;17.98;16.48;;;6.20;99.90;;;;;;5050462;28;20033;-81
2022/05/02 02:23:58;;;;;;;18.60;16.98;;;6.10;99.90;;;;;;5046764;28;20059;-81
2022/05/02 02:26:24;;;;;;;19.55;17.77;;;6.20;99.90;;;;;;5047457;28;20478;-81
2022/05/02 02:28:50;;;;;;;20.15;18.45;;;6.10;99.90;;;;;;5050212;28;20063;-81
2022/05/02 02:31:16;;;;;;;18.75;17.30;;;6.10;99.90;;;;;;5030232;28;20036;-81
2022/05/02 02:33:43;;;;;;;20.88;18.90;;;6.20;99.90;;;;;;5049639;28;20036;-80
2022/05/02 02:36:09;;;;;;;21.20;19.52;;;6.10;99.90;;;;;;5051476;28;20036;-80
2022/05/02 02:38:35;;;;;;;17.70;16.13;;;6.10;99.90;;;;;;5042708;28;20086;-80
2022/05/02 02:41:01;;;;;;;18.23;16.70;;;6.00;99.90;;;;;;5042543;28;20029;-80
2022/05/02 02:43:27;;;;;;;17.92;16.42;;;5.90;99.90;;;;;;5051413;28;20040;-80
2022/05/02 02:45:53;;;;;;;17.67;16.27;;;5.70;99.90;;;;;;5050462;28;20036;-80
2022/05/02 02:48:20;;;;;;;17.65;16.00;;;5.70;99.90;;;;;;5033104;28;20045;-80
2022/05/02 02:50:46;;;;;;;18.42;16.63;;;5.60;99.90;;;;;;5054310;28;20029;-78
2022/05/02 02:53:12;;;;;;;19.70;17.92;;;5.60;99.90;;;;;;5062022;28;20036;-80
2022/05/02 02:55:38;;;;;;;18.45;16.77;;;5.70;99.90;;;;;;5058429;28;20032;-80
2022/05/02 02:58:04;;;;;;;20.10;18.15;;;5.70;99.90;;;;;;5055291;28;20051;-80
2022/05/02 03:00:31;;;;;;;19.35;17.88;;;5.70;99.90;;;;;;5047868;28;20029;-79
2022/05/02 03:02:57;;;;;;;18.23;16.83;;;5.70;99.90;;;;;;5053268;28;20221;-79
2022/05/02 03:08:09;;;;;;;17.30;15.85;;;5.70;99.90;;;;;;5054189;28;20052;-79
2022/05/02 03:10:36;;;;;;;20.85;18.77;;;5.70;99.90;;;;;;5049712;28;20036;-79
2022/05/02 03:13:04;;;;;;;18.58;17.08;;;5.70;99.90;;;;;;5052972;28;20040;-79
2022/05/02 03:15:32;;;;;;;19.85;18.08;;;5.70;99.90;;;;;;5049722;28;20037;-79
2022/05/02 03:17:58;;;;;;;19.80;17.90;;;5.60;99.90;;;;;;5052269;28;20624;-79
2022/05/02 03:20:24;;;;;;;16.80;15.45;;;5.60;99.90;;;;;;5049029;28;20025;-80
2022/05/02 03:22:50;;;;;;;19.13;17.30;;;5.60;99.90;;;;;;5052082;28;20021;-80
2022/05/02 03:25:16;;;;;;;19.58;17.65;;;5.60;99.90;;;;;;5052691;28;20051;-80
2022/05/02 03:27:42;;;;;;;19.90;18.35;;;5.50;99.90;;;;;;5052039;28;20037;-79
2022/05/02 03:30:09;;;;;;;19.25;17.63;;;5.50;99.90;;;;;;5044355;28;20045;-80
2022/05/02 03:32:35;;;;;;;19.83;18.15;;;5.50;99.90;;;;;;5050922;28;20033;-79
2022/05/02 03:35:01;;;;;;;19.50;17.67;;;5.50;99.90;;;;;;5049282;28;20036;-79
2022/05/02 03:37:28;;;;;;;21.92;19.88;;;5.40;99.90;;;;;;5049835;28;20037;-79
2022/05/02 03:39:54;;;;;;;19.95;17.92;;;5.40;99.90;;;;;;5051791;28;20025;-80
2022/05/02 03:42:20;;;;;;;20.77;19.05;;;5.30;99.90;;;;;;5030786;28;20044;-79
2022/05/02 03:44:46;;;;;;;21.10;19.30;;;5.30;99.90;;;;;;5043765;28;20033;-79
2022/05/02 03:47:12;;;;;;;19.20;17.60;;;5.30;99.90;;;;;;5046705;28;20040;-79
2022/05/02 03:49:39;;;;;;;19.60;17.65;;;5.20;99.90;;;;;;5047507;28;20024;-79
2022/05/02 03:52:06;;;;;;;20.70;18.92;;;5.20;99.90;;;;;;5054013;28;20036;-79
2022/05/02 03:54:32;;;;;;;19.30;17.55;;;5.30;99.90;;;;;;5053797;28;20066;-79
2022/05/02 03:56:58;;;;;;;20.40;18.60;;;5.30;99.90;;;;;;5047507;28;20283;-79
2022/05/02 03:59:24;;;;;;;20.45;18.65;;;5.30;99.90;;;;;;5049599;28;20029;-79
2022/05/02 04:01:50;;;;;;;21.80;20.00;;;5.40;99.90;;;;;;5046328;28;20034;-79
2022/05/02 04:04:16;;;;;;;20.90;18.90;;;5.50;99.90;;;;;;5036590;28;20478;-79
2022/05/02 04:06:43;;;;;;;20.73;18.92;;;5.50;99.90;;;;;;5052874;28;20359;-79
2022/05/02 04:09:09;;;;;;;19.48;17.73;;;5.40;99.90;;;;;;5054161;28;20037;-79
2022/05/02 04:11:36;;;;;;;20.45;18.45;;;5.40;99.90;;;;;;5052877;28;20044;-79
2022/05/02 04:14:02;;;;;;;22.45;20.30;;;5.30;99.90;;;;;;5053805;28;20037;-78
2022/05/02 04:16:29;;;;;;;21.73;19.80;;;5.40;99.90;;;;;;5052048;28;20393;-79
2022/05/02 04:18:55;;;;;;;20.60;18.67;;;5.40;99.90;;;;;;5035880;28;20044;-79
2022/05/02 04:21:21;;;;;;;20.08;18.05;;;5.40;99.90;;;;;;5051017;28;20453;-79
2022/05/02 04:23:47;;;;;;;21.45;18.08;;;5.50;99.90;;;;;;5043565;28;20057;-79
2022/05/02 04:26:13;;;;;;;21.05;19.00;;;5.40;99.90;;;;;;5031612;28;20044;-79
2022/05/02 04:28:39;;;;;;;23.85;18.20;;;5.40;99.90;;;;;;5025803;28;20042;-79
2022/05/02 04:31:06;;;;;;;19.42;17.70;;;5.50;99.90;;;;;;5024046;28;20037;-79
2022/05/02 04:33:32;;;;;;;21.42;19.20;;;5.60;99.90;;;;;;5029023;28;20383;-80
2022/05/02 04:35:58;;;;;;;19.98;18.08;;;5.70;99.90;;;;;;5031286;28;20037;-79
2022/05/02 04:38:26;;;;;;;19.27;17.67;;;5.80;99.90;;;;;;5032941;28;20041;-79
2022/05/02 04:40:52;;;;;;;18.60;16.77;;;5.80;99.90;;;;;;5032567;28;20029;-79
2022/05/02 04:43:18;;;;;;;18.60;16.50;;;5.90;99.90;;;;;;5030261;28;20041;-80
2022/05/02 04:45:45;;;;;;;16.52;14.93;;;5.90;99.90;;;;;;5027754;28;20033;-79
2022/05/02 04:48:11;;;;;;;14.25;12.90;;;6.10;99.90;;;;;;5031317;28;20044;-79
2022/05/02 04:50:37;;;;;;;12.07;10.82;;;6.50;99.90;;;;;;5032352;28;20030;-79
2022/05/02 04:53:03;;;;;;;11.02;10.13;;;7.20;99.90;;;;;;5032451;28;20038;-79
2022/05/02 04:55:30;;;;;;;10.90;9.85;;;7.90;99.90;;;;;;5033344;28;20037;-79
2022/05/02 04:57:56;;;;;;;10.13;9.18;;;8.40;99.90;;;;;;5031624;28;20030;-79
2022/05/02 05:00:22;;;;;;;8.70;7.80;;;9.20;99.90;;;;;;5031888;28;20045;-80
2022/05/02 05:02:48;;;;;;;8.35;7.47;;;9.90;99.90;;;;;;5030884;28;20026;-80
2022/05/02 05:05:16;;;;;;;11.48;7.93;;;10.50;99.90;;;;;;5013996;28;20046;-80
2022/05/02 05:07:43;;;;;;;7.95;7.25;;;10.50;99.90;;;;;;5025471;28;20376;-80
2022/05/02 05:10:09;;;;;;;8.55;7.78;;;10.40;99.90;;;;;;5024985;28;20022;-79
2022/05/02 05:12:54;;;;;;;8.10;7.40;;;10.50;99.90;;;;;;5024105;28;20041;-79
2022/05/02 05:18:35;;;;;;;9.80;8.45;;;10.00;99.90;;;;;;5024263;28;20044;-79
2022/05/02 05:21:17;;;;;;;10.38;7.25;;;10.10;99.90;;;;;;5019617;28;20034;-79
2022/05/02 05:23:52;;;;;;;8.82;7.68;;;10.40;99.90;;;;;;5035099;28;20431;-79
2022/05/02 05:26:33;;;;;;;8.38;7.57;;;10.20;99.90;;;;;;5034871;28;20049;-79
2022/05/02 05:29:12;;;;;;;9.68;8.73;;;10.20;99.90;;;;;;5054615;28;20048;-78
2022/05/02 05:31:57;;;;;;;9.95;7.82;;;10.20;99.90;;;;;;5050453;28;20039;-79
2022/05/02 05:35:05;;;;;;;9.93;7.85;;;10.10;99.90;;;;;;5047511;28;20040;-80
2022/05/02 05:37:47;;;;;;;12.57;9.30;;;10.50;99.90;;;;;;4990876;28;20034;-79
2022/05/02 05:40:42;;;;;;;10.23;8.23;;;11.10;99.90;;;;;;5031010;28;20057;-79
2022/05/02 05:43:33;;;;;;;9.10;8.30;;;11.60;99.90;;;;;;5033519;28;20032;-79
2022/05/02 05:46:14;;;;;;;8.88;7.63;;;12.30;99.90;;;;;;5052183;28;20032;-79
2022/05/02 05:48:47;;;;;;;;;;;12.40;99.90;;;;;;5045939;28;20045;-79
2022/05/02 05:51:36;;;;;;;8.93;6.68;;;12.70;99.90;;;;;;5032621;28;20257;-79
2022/05/02 05:54:32;;;;;;;7.80;6.50;;;12.40;99.90;;;;;;5030743;28;20057;-81
2022/05/02 05:57:19;;;;;;;7.97;6.68;;;11.70;99.90;;;;;;5045051;28;20028;-80
2022/05/02 06:00:03;;;;;;;7.95;7.15;;;11.40;99.90;;;;;;5027507;28;20037;-80
2022/05/02 06:03:02;;;;;;;10.32;7.55;;;11.30;99.90;;;;;;5051813;28;20037;-80
2022/05/02 06:05:28;;;;;;;8.38;7.32;;;11.10;99.90;;;;;;5049945;28;20040;-80
2022/05/02 06:07:55;;;;;;;11.40;7.80;;;11.20;99.90;;;;;;5051134;28;20397;-81
2022/05/02 06:10:25;;;;;;;11.43;7.45;;;11.20;99.90;;;;;;5053068;28;20057;-82
2022/05/02 06:12:52;;;;;;;7.90;6.82;;;11.20;99.90;;;;;;5045686;28;20040;-80
2022/05/02 06:20:52;;;;;;;8.27;6.47;;;12.20;99.90;;;;;;5026611;28;20056;-80
2022/05/02 06:23:20;;;;;;;7.53;6.78;;;12.40;99.90;;;;;;5046687;28;20375;-81
2022/05/02 06:25:49;;;;;;;7.93;7.20;;;12.40;99.90;;;;;;5030172;28;20045;-81
2022/05/02 06:28:19;;;;;;;6.47;5.93;;;12.60;99.90;;;;;;5048386;28;20037;-81
2022/05/02 06:30:48;;;;;;;;;;;13.00;99.90;;;;;;5049209;28;20029;-81
2022/05/02 06:33:15;;;;;;;8.57;6.38;;;12.80;99.90;;;;;;5029819;28;19920;-81
2022/05/02 06:35:53;;;;;;;9.65;6.78;;;13.20;99.90;;;;;;5043565;28;20029;-79
2022/05/02 06:39:05;;;;;;;7.32;6.63;;;13.80;99.90;;;;;;5051228;28;20033;-81
2022/05/02 06:41:53;;;;;;;7.15;6.45;;;13.30;99.90;;;;;;5006162;28;20072;-81
2022/05/02 06:44:41;;;;;;;7.97;7.18;;;13.70;99.90;;;;;;5044808;28;20033;-81
2022/05/02 06:47:30;;;;;;;11.25;6.78;;;13.50;99.90;;;;;;5051699;28;20477;-81
2022/05/02 06:49:59;;;;;;;7.72;6.93;;;13.60;99.90;;;;;;5030864;28;20052;-81
2022/05/02 06:52:32;;;;;;;9.13;6.50;;;14.20;99.90;;;;;;5048806;28;20450;-81
2022/05/02 06:55:07;;;;;;;9.98;7.15;;;14.30;99.90;;;;;;5048768;28;20541;-81
2022/05/02 06:58:16;;;;;;;8.75;6.30;;;14.60;99.90;;;;;;5032751;28;20105;-81
2022/05/02 07:01:11;;;;;;;10.38;7.30;;;14.60;99.90;;;;;;5044804;28;20028;-80
2022/05/02 07:03:52;;;;;;;8.23;6.53;;;13.50;99.90;;;;;;5015827;28;20045;-81
2022/05/02 07:06:54;;;;;;;7.57;6.88;;;13.40;99.90;;;;;;5048586;28;20037;-81
2022/05/02 07:09:41;;;;;;;7.68;6.90;;;13.90;99.90;;;;;;5042272;28;20036;-81
2022/05/02 07:12:18;;;;;;;7.35;6.70;;;13.40;99.90;;;;;;5047040;28;20025;-81
2022/05/02 07:15:14;;;;;;;10.90;6.15;;;14.40;99.90;;;;;;5042908;28;20454;-81
2022/05/02 07:17:43;;;;;;;7.65;6.60;;;15.20;99.90;;;;;;5046765;28;20037;-80
2022/05/02 07:20:32;;;;;;;6.95;5.82;;;14.70;99.10;;;;;;5047853;28;20025;-81
2022/05/02 07:23:19;;;;;;;8.65;6.57;;;14.30;99.90;;;;;;5046206;28;20514;-81
2022/05/02 07:25:53;;;;;;;7.10;6.40;;;15.00;99.90;;;;;;5012611;28;20038;-81
2022/05/02 07:28:42;;;;;;;8.32;6.18;;;15.30;98.80;;;;;;5030648;28;20054;-81
2022/05/02 07:31:09;;;;;;;7.28;6.47;;;14.80;99.80;;;;;;5026853;28;20044;-82
2022/05/02 07:33:37;;;;;;;7.13;6.50;;;14.40;99.90;;;;;;5031628;28;20029;-82
2022/05/02 07:36:05;;;;;;;9.25;6.45;;;14.50;99.90;;;;;;5013365;28;20065;-81
2022/05/02 07:38:33;;;;;;;8.48;7.50;;;14.60;99.90;;;;;;5033097;28;20493;-81
2022/05/02 07:41:22;;;;;;;7.10;6.45;;;14.60;99.90;;;;;;5026516;28;20658;-81
2022/05/02 07:43:50;;;;;;;9.80;7.40;;;15.00;99.90;;;;;;5026121;28;20044;-81
2022/05/02 07:46:20;;;;;;;7.60;6.80;;;15.30;99.90;;;;;;5029751;28;20030;-82
2022/05/02 07:48:51;;;;;;;6.57;5.93;;;15.40;98.90;;;;;;5022823;28;20038;-81
2022/05/02 07:51:18;;;;;;;;;;;16.40;96.50;;;;;;5025497;28;20031;-82
2022/05/02 07:53:45;;;;;;;10.15;6.43;;;16.60;95.10;;;;;;4991715;28;19921;-81
2022/05/02 07:56:13;;;;;;;7.32;6.63;;;16.20;96.10;;;;;;5006914;28;20474;-82
2022/05/02 07:58:45;;;;;;;6.95;6.25;;;16.10;96.20;;;;;;5017379;28;20033;-81
2022/05/02 08:01:16;;;;;;;7.45;6.00;;;16.40;96.00;;;;;;5027437;28;20044;-81
2022/05/02 08:03:42;;;;;;;7.18;6.28;;;16.00;96.90;;;;;;5025608;28;20033;-81
2022/05/02 08:06:29;;;;;;;6.65;5.93;;;15.80;97.60;;;;;;5032255;28;20037;-80
2022/05/02 08:09:38;;;;;;;7.60;6.10;;;17.80;95.80;;;;;;5029909;28;20037;-81
2022/05/02 08:12:22;;;;;;;6.35;5.75;;;19.50;85.10;;;;;;4983437;28;20440;-82
2022/05/02 08:14:56;;;;;;;9.95;5.55;;;19.00;82.90;;;;;;5012270;28;20041;-83
2022/05/02 08:17:43;;;;;;;7.75;4.38;;;19.00;80.90;;;;;;5033581;28;20033;-82
2022/05/02 08:20:18;;;;;;;6.30;5.35;;;19.60;78.00;;;;;;5005664;28;20053;-82
2022/05/02 08:29:16;;;;;;;7.20;5.07;;;18.60;83.60;;;;;;5045018;28;20376;-82
2022/05/02 08:32:14;;;;;;;5.30;4.80;;;17.90;80.90;;;;;;5050905;28;20029;-82
2022/05/02 08:34:40;;;;;;;6.10;4.85;;;17.60;81.20;;;;;;5051206;28;20033;-81
2022/05/02 08:37:37;;;;;;;5.70;5.20;;;17.20;85.60;;;;;;5048714;28;20029;-81
2022/05/02 08:40:25;;;;;;;5.88;4.85;;;17.60;83.60;;;;;;5046471;28;20463;-81
2022/05/02 08:43:00;;;;;;;5.60;4.18;;;17.80;83.50;;;;;;5050392;28;20033;-83
2022/05/02 08:45:38;;;;;;;6.13;4.80;;;19.00;79.20;;;;;;5032895;28;20043;-82
2022/05/02 08:52:13;;;;;;;4.70;4.30;;;18.70;76.90;;;;;;5043203;28;20485;-83
2022/05/02 08:54:52;;;;;;;5.90;4.38;;;19.60;71.30;;;;;;5048668;28;20037;-82
2022/05/02 08:57:39;;;;;;;4.40;4.00;;;19.00;70.70;;;;;;5053385;28;20033;-85
2022/05/02 09:00:11;;;;;;;6.07;4.55;;;19.60;72.20;;;;;;5049914;28;20045;-82
2022/05/02 09:02:49;;;;;;;4.70;4.30;;;18.90;73.20;;;;;;5033344;28;20037;-82
2022/05/02 09:06:06;;;;;;;7.57;5.00;;;18.50;73.90;;;;;;5031329;28;20100;-82
2022/05/02 09:09:14;;;;;;;6.43;4.72;;;19.10;69.10;;;;;;4998604;28;20056;-82
2022/05/02 09:12:20;;;;;;;12.38;5.05;;;18.90;69.60;;;;;;4990231;28;20046;-80
2022/05/02 09:15:13;;;;;;;5.93;5.25;;;19.80;70.80;;;;;;5049097;28;20040;-81
2022/05/02 09:18:11;;;;;;;5.45;4.95;;;18.80;69.50;;;;;;5014477;28;20048;-80
2022/05/02 09:21:00;;;;;;;8.13;4.80;;;18.90;70.70;;;;;;5044682;28;20059;-81
2022/05/02 09:23:29;;;;;;;4.50;4.13;;;21.60;67.60;;;;;;5033820;28;20057;-82
2022/05/02 09:26:26;;;;;;;5.53;5.03;;;22.40;63.10;;;;;;5017160;28;20493;-81
2022/05/02 09:29:16;;;;;;;7.43;4.72;;;22.20;60.00;;;;;;5050479;28;20292;-82
2022/05/02 09:31:54;;;;;;;5.55;4.97;;;20.20;62.70;;;;;;5029023;28;20395;-80
2022/05/02 09:34:23;;;;;;;6.50;4.95;;;20.80;62.00;;;;;;5051119;28;20504;-81
2022/05/02 09:37:36;;;;;;;7.10;4.93;;;21.60;60.80;;;;;;5033456;28;20041;-81
2022/05/02 09:40:09;;;;;;;14.60;5.13;;;22.30;58.60;;;;;;5050965;28;20379;-82
2022/05/02 09:42:54;;;;;;;6.22;4.75;;;21.60;59.10;;;;;;5031185;28;20029;-77
2022/05/02 09:51:35;;;;;;;7.13;5.03;;;21.60;59.00;;;;;;5051270;28;20039;-80
2022/05/02 09:57:22;;;;;;;6.68;5.07;;;21.00;57.10;;;;;;5048634;28;20051;-81
2022/05/02 10:01:06;;;;;;;6.05;5.20;;;20.60;59.50;;;;;;5048048;28;20047;-80
2022/05/02 10:02:48;;;;;;;5.57;5.07;;;19.80;60.70;;;;;;5044067;28;20037;-80
2022/05/02 10:05:22;;;;;;;6.75;6.15;;;19.00;64.20;;;;;;5040068;28;20049;-80
2022/05/02 10:08:04;;;;;;;6.57;5.95;;;19.30;61.60;;;;;;5044778;28;20025;-80
2022/05/02 10:11:06;;;;;;;6.78;5.70;;;19.20;61.60;;;;;;5056101;28;20033;-80
2022/05/02 10:13:37;;;;;;;7.30;5.50;;;19.20;61.30;;;;;;5020740;28;20037;-81
2022/05/02 10:16:13;;;;;;;9.18;6.30;;;19.40;62.50;;;;;;5055238;28;20029;-80
2022/05/02 10:18:56;;;;;;;8.65;5.28;;;18.90;63.50;;;;;;5051559;28;20041;-80
2022/05/02 10:21:23;;;;;;;8.45;5.60;;;19.10;63.20;;;;;;5052027;28;20143;-80
2022/05/02 10:23:58;;;;;;;7.13;5.80;;;19.10;63.40;;;;;;5053822;28;20055;-81
2022/05/02 10:26:42;;;;;;;6.43;5.82;;;19.00;62.70;;;;;;5050880;28;20029;-80
2022/05/02 10:29:38;;;;;;;9.15;6.00;;;18.80;63.10;;;;;;5048715;28;20036;-78
2022/05/02 10:32:08;;;;;;;5.03;4.63;;;18.50;64.40;;;;;;5055766;28;20065;-80
2022/05/02 10:34:37;;;;;;;6.57;5.88;;;18.50;63.60;;;;;;5047436;28;20032;-80
2022/05/02 10:37:07;;;;;;;8.43;5.30;;;18.90;63.70;;;;;;5053694;28;20029;-80
2022/05/02 10:39:47;;;;;;;8.07;6.90;;;19.10;60.80;;;;;;5050348;28;20386;-79
2022/05/02 10:42:18;;;;;;;7.75;5.53;;;18.60;62.30;;;;;;5052365;28;20044;-79
2022/05/02 10:45:07;;;;;;;7.60;5.47;;;19.10;62.40;;;;;;5050911;28;20029;-79
2022/05/02 10:47:41;;;;;;;9.10;6.13;;;19.50;59.40;;;;;;5050830;28;20482;-79
2022/05/02 10:50:25;;;;;;;6.55;5.82;;;19.40;57.80;;;;;;5046970;28;20045;-81
2022/05/02 10:52:54;;;;;;;6.95;4.90;;;19.00;57.20;;;;;;5045258;28;20025;-80
2022/05/02 10:55:33;;;;;;;7.68;6.07;;;19.00;59.70;;;;;;5048144;28;20052;-80
2022/05/02 10:58:05;;;;;;;6.47;5.85;;;19.20;62.40;;;;;;5050959;28;20576;-80
2022/05/02 11:00:32;;;;;;;9.25;6.22;;;19.40;64.60;;;;;;5045557;28;20497;-79
2022/05/02 11:03:16;;;;;;;10.90;6.78;;;19.70;64.30;;;;;;5049444;28;20068;-80
2022/05/02 11:06:01;;;;;;;9.27;5.47;;;19.70;63.20;;;;;;5054623;28;20033;-79
2022/05/02 11:08:33;;;;;;;9.27;6.10;;;20.10;61.20;;;;;;5050573;28;20039;-79
2022/05/02 11:11:06;;;;;;;7.25;5.50;;;19.50;62.20;;;;;;5052247;28;20041;-82
2022/05/02 11:13:45;;;;;;;7.10;6.10;;;19.30;61.10;;;;;;5056089;28;20040;-80
2022/05/02 11:16:27;;;;;;;7.43;5.55;;;19.10;63.10;;;;;;5046563;28;20029;-79
2022/05/02 11:22:15;;;;;;;5.40;5.00;;;19.80;62.00;;;;;;5034465;28;20504;-80
2022/05/02 11:24:47;;;;;;;7.43;5.85;;;20.40;60.70;;;;;;5058495;28;20045;-80
2022/05/02 11:27:17;;;;;;;9.65;5.43;;;20.60;61.80;;;;;;5057193;28;20057;-80
2022/05/02 11:29:48;;;;;;;;;;;20.40;60.60;;;;;;5049149;28;20409;-80
2022/05/02 11:32:34;;;;;;;7.78;5.50;;;20.30;59.30;;;;;;5053075;28;19916;-82
2022/05/02 11:35:13;;;;;;;6.03;5.43;;;19.60;60.30;;;;;;5033240;28;20049;-80
2022/05/02 11:38:07;;;;;;;5.50;4.53;;;19.50;60.40;;;;;;5044470;28;20032;-80
2022/05/02 11:40:43;;;;;;;9.38;5.65;;;20.00;61.30;;;;;;5053696;28;20052;-81
2022/05/02 11:43:18;;;;;;;5.97;5.40;;;20.00;61.50;;;;;;5048335;28;20041;-80
2022/05/02 11:46:02;;;;;;;6.90;4.97;;;19.10;62.00;;;;;;5047852;28;20029;-80
2022/05/02 11:48:57;;;;;;;7.90;6.30;;;19.60;63.00;;;;;;5049402;28;20032;-80
2022/05/02 11:51:43;;;;;;;5.20;4.70;;;20.00;61.20;;;;;;5039931;28;20493;-81
2022/05/02 11:54:29;;;;;;;7.85;5.47;;;20.20;59.40;;;;;;5036364;28;20048;-80
2022/05/02 11:57:09;;;;;;;7.43;5.40;;;20.00;58.50;;;;;;5051417;28;20029;-81
2022/05/02 12:00:05;;;;;;;6.20;5.68;;;19.60;58.80;;;;;;5049816;28;20025;-80
2022/05/02 12:02:38;;;;;;;17.00;4.50;;;19.80;59.10;;;;;;5045622;28;20077;-81
2022/05/02 12:05:27;;;;;;;4.72;4.03;;;20.70;58.00;;;;;;5037388;28;20097;-81
2022/05/02 12:08:00;;;;;;;5.18;4.32;;;20.60;57.20;;;;;;5050986;28;20041;-80
2022/05/02 12:10:41;;;;;;;4.72;4.20;;;20.40;56.70;;;;;;5046473;28;20040;-80
2022/05/02 12:13:13;;;;;;;6.22;4.25;;;20.70;57.20;;;;;;5050035;28;20494;-79
2022/05/02 12:15:59;;;;;;;7.25;4.93;;;20.70;58.00;;;;;;5050655;28;20055;-80
2022/05/02 12:18:49;;;;;;;5.03;4.53;;;20.20;58.20;;;;;;5053724;28;20037;-81
2022/05/02 12:21:32;;;;;;;5.40;4.90;;;19.90;58.70;;;;;;5047450;28;20029;-81
2022/05/02 12:24:00;;;;;;;5.57;4.72;;;20.20;58.60;;;;;;5053494;28;20327;-81
2022/05/02 12:26:27;;;;;;;9.25;4.13;;;20.00;59.00;;;;;;5053284;28;20037;-79
2022/05/02 12:29:01;;;;;;;5.97;4.95;;;20.00;59.20;;;;;;5047819;28;20393;-81
2022/05/02 12:31:32;;;;;;;6.15;4.80;;;20.00;58.70;;;;;;5053144;28;20783;-81
2022/05/02 12:34:09;;;;;;;6.45;4.85;;;20.00;59.40;;;;;;5042787;28;20037;-80
2022/05/02 12:36:45;;;;;;;4.72;4.20;;;19.60;59.30;;;;;;5048705;28;20413;-81
2022/05/02 12:39:21;;;;;;;5.43;4.18;;;19.50;59.50;;;;;;5051381;28;20053;-82
2022/05/02 12:41:59;;;;;;;5.32;4.82;;;19.70;59.70;;;;;;5051865;28;20025;-81
2022/05/02 12:44:41;;;;;;;6.95;4.95;;;19.90;59.00;;;;;;5046767;28;20044;-82
2022/05/02 12:47:15;;;;;;;4.47;3.97;;;19.90;58.20;;;;;;5043849;28;20025;-81
2022/05/02 12:50:03;;;;;;;5.03;4.03;;;20.10;58.20;;;;;;5043977;28;20485;-80
2022/05/02 12:52:31;;;;;;;5.15;4.65;;;20.00;58.10;;;;;;5042288;28;20481;-81
2022/05/02 12:54:58;;;;;;;5.65;4.47;;;19.50;58.20;;;;;;5052537;28;20063;-81
2022/05/02 13:00:31;;;;;;;7.00;4.60;;;19.80;58.60;;;;;;5047858;28;20033;-83
2022/05/02 13:03:23;;;;;;;;;;;19.60;58.00;;;;;;5052092;28;20028;-83
2022/05/02 13:06:06;;;;;;;6.50;4.50;;;19.70;58.00;;;;;;5039170;28;19928;-83
2022/05/02 13:08:43;;;;;;;5.05;4.25;;;19.60;58.00;;;;;;5044950;28;20118;-83
2022/05/02 13:11:13;;;;;;;6.10;4.40;;;19.40;58.20;;;;;;5049534;28;20501;-83
2022/05/02 13:13:47;;;;;;;4.70;4.22;;;19.40;58.60;;;;;;5051365;28;20041;-83
2022/05/02 13:16:34;;;;;;;4.88;4.38;;;19.20;57.50;;;;;;5047811;28;20370;-84
2022/05/02 13:19:03;;;;;;;5.05;4.57;;;19.40;58.40;;;;;;5034959;28;20037;-83
2022/05/02 13:21:30;;;;;;;6.00;4.47;;;19.20;58.80;;;;;;5049992;28;20381;-84
2022/05/02 13:23:59;;;;;;;7.97;4.25;;;19.40;59.20;;;;;;5034395;28;20491;-83
2022/05/02 13:27:05;;;;;;;6.75;4.60;;;19.50;57.70;;;;;;5027950;28;20033;-83
2022/05/02 13:29:57;;;;;;;5.40;4.60;;;19.30;57.80;;;;;;5027723;28;20045;-84
2022/05/02 13:32:26;;;;;;;4.80;4.00;;;19.40;57.80;;;;;;5031757;28;20038;-84
2022/05/02 13:35:09;;;;;;;5.22;4.78;;;19.50;58.30;;;;;;5029357;28;20041;-84
2022/05/02 13:37:41;;;;;;;7.00;4.50;;;19.80;58.10;;;;;;5025970;28;20040;-82
2022/05/02 13:40:13;;;;;;;4.07;3.28;;;19.90;58.00;;;;;;5011691;28;20034;-84
2022/05/02 13:43:08;;;;;;;7.43;4.57;;;19.80;57.30;;;;;;5029132;28;20037;-83
2022/05/02 13:45:46;;;;;;;4.93;4.53;;;19.80;57.70;;;;;;5032855;28;20033;-83
2022/05/02 13:48:19;;;;;;;5.40;4.90;;;20.10;58.20;;;;;;5031237;28;20049;-84
2022/05/02 13:51:07;;;;;;;8.48;3.95;;;20.00;57.00;;;;;;4998198;28;20045;-85
2022/05/02 13:53:35;;;;;;;4.65;4.25;;;20.40;57.70;;;;;;5030248;28;20463;-83
2022/05/02 13:56:26;;;;;;;6.15;4.63;;;20.20;58.50;;;;;;5027698;28;20049;-84
2022/05/02 13:59:14;;;;;;;4.78;4.05;;;20.30;57.90;;;;;;5032677;28;20049;-82